Time;durP1;ratioP1;P1;durP2;ratioP2;P2;SDS_P1;SDS_P2;PMS_P1;PMS_P2;Temp;Humidity;BMP_temperature;BMP_pressure;BME280_temperature;BME280_humidity;BME280_pressure;Samples;Min_cycle;Max_cycle;Signal;HPM_P1;HPM_P2
2022/01/10 00:01:52;;;;;;;22.20;8.83;;;3.70;99.90;;;;;;6187850;23;20169;-79
2022/01/10 00:04:19;;;;;;;25.43;8.40;;;3.70;99.90;;;;;;6185989;23;20175;-86
2022/01/10 00:06:46;;;;;;;17.53;8.03;;;3.70;99.90;;;;;;6184069;23;20568;-92
2022/01/10 00:09:14;;;;;;;18.87;7.83;;;3.70;99.90;;;;;;6181524;23;20174;-91
2022/01/10 00:11:41;;;;;;;22.77;8.07;;;3.70;99.90;;;;;;6181604;23;20167;-86
2022/01/10 00:14:08;;;;;;;16.60;7.47;;;3.70;99.90;;;;;;6182048;23;20186;-81
2022/01/10 00:16:35;;;;;;;19.17;8.00;;;3.70;99.90;;;;;;6183031;23;20175;-83
2022/01/10 00:19:01;;;;;;;18.70;8.77;;;3.70;99.90;;;;;;6181324;23;20273;-81
2022/01/10 00:21:28;;;;;;;17.97;8.77;;;3.70;99.90;;;;;;6180355;23;20261;-84
2022/01/10 00:23:55;;;;;;;18.13;8.30;;;3.70;99.90;;;;;;6180338;23;20171;-80
2022/01/10 00:26:23;;;;;;;23.43;7.13;;;3.80;99.90;;;;;;6180112;23;20170;-83
2022/01/10 00:28:51;;;;;;;16.03;8.47;;;3.80;99.90;;;;;;6180099;23;20194;-91
2022/01/10 00:31:19;;;;;;;28.17;10.90;;;3.80;99.90;;;;;;6178813;23;20175;-91
2022/01/10 00:33:46;;;;;;;30.80;10.57;;;3.80;99.90;;;;;;6178691;23;20193;-82
2022/01/10 00:36:14;;;;;;;28.93;10.23;;;3.90;99.90;;;;;;6180690;23;20194;-80
2022/01/10 00:38:41;;;;;;;21.13;8.30;;;3.90;99.90;;;;;;6181070;23;20167;-80
2022/01/10 00:41:09;;;;;;;24.10;10.43;;;3.90;99.90;;;;;;6180081;23;20477;-80
2022/01/10 00:43:45;;;;;;;23.27;10.47;;;3.90;99.90;;;;;;6178549;23;20179;-81
2022/01/10 00:46:12;;;;;;;22.77;8.87;;;3.90;99.90;;;;;;6180110;23;20252;-81
2022/01/10 00:48:39;;;;;;;20.87;9.33;;;3.90;99.90;;;;;;6176708;23;20179;-85
2022/01/10 00:51:06;;;;;;;27.93;9.97;;;3.90;99.90;;;;;;6180185;23;20166;-81
2022/01/10 00:53:33;;;;;;;22.20;9.80;;;3.90;99.90;;;;;;6183367;23;20171;-84
2022/01/10 00:56:00;;;;;;;26.20;9.30;;;3.90;99.90;;;;;;6185464;23;20174;-92
2022/01/10 00:58:27;;;;;;;25.13;10.00;;;3.90;99.90;;;;;;6185076;23;20170;-79
2022/01/10 01:00:55;;;;;;;15.50;8.40;;;3.90;99.90;;;;;;6184223;23;20201;-80
2022/01/10 01:03:22;;;;;;;18.13;8.87;;;3.80;99.90;;;;;;6184567;23;20174;-91
2022/01/10 01:05:49;;;;;;;18.63;7.70;;;3.80;99.90;;;;;;6182653;23;20199;-87
2022/01/10 01:08:16;;;;;;;24.57;8.60;;;3.80;99.90;;;;;;6195039;23;20215;-91
2022/01/10 01:13:29;;;;;;;26.63;9.27;;;3.80;99.90;;;;;;6172316;23;20174;-89
2022/01/10 01:16:12;;;;;;;21.43;8.50;;;3.70;99.90;;;;;;6185315;23;20197;-83
2022/01/10 01:19:07;;;;;;;16.87;7.93;;;3.70;99.90;;;;;;6183977;23;20248;-87
2022/01/10 01:24:18;;;;;;;12.30;7.87;;;3.70;99.90;;;;;;6181358;23;20185;-83
2022/01/10 01:26:48;;;;;;;19.57;8.27;;;3.70;99.90;;;;;;6181498;23;20178;-83
2022/01/10 01:29:18;;;;;;;16.90;9.03;;;3.70;99.90;;;;;;6181955;23;20198;-83
2022/01/10 01:31:46;;;;;;;25.20;9.27;;;3.70;99.90;;;;;;6181344;23;20174;-85
2022/01/10 01:34:15;;;;;;;19.73;8.37;;;3.70;99.90;;;;;;6180310;23;20166;-90
2022/01/10 01:36:42;;;;;;;22.33;9.33;;;3.70;99.90;;;;;;6177848;23;20198;-85
2022/01/10 01:39:18;;;;;;;21.70;8.30;;;3.70;99.90;;;;;;6179695;23;20174;-89
2022/01/10 01:41:46;;;;;;;20.40;8.87;;;3.70;99.90;;;;;;6180819;23;20214;-83
2022/01/10 01:44:13;;;;;;;16.20;7.77;;;3.70;99.90;;;;;;6178849;23;20181;-81
2022/01/10 01:46:42;;;;;;;19.77;8.53;;;3.70;99.90;;;;;;6180029;23;20177;-81
2022/01/10 01:49:11;;;;;;;24.43;8.20;;;3.70;99.90;;;;;;6179212;23;20280;-80
2022/01/10 01:51:38;;;;;;;20.03;9.50;;;3.70;99.90;;;;;;6178996;23;20175;-81
2022/01/10 01:54:06;;;;;;;16.90;8.93;;;3.80;99.90;;;;;;6178577;23;20175;-81
2022/01/10 01:56:34;;;;;;;17.50;7.43;;;3.80;99.90;;;;;;6177291;23;20186;-80
2022/01/10 01:59:01;;;;;;;18.83;9.10;;;3.80;99.90;;;;;;6177599;23;20953;-80
2022/01/10 02:01:28;;;;;;;20.23;8.07;;;3.80;99.90;;;;;;6177884;23;20202;-81
2022/01/10 02:03:55;;;;;;;23.77;7.97;;;3.80;99.90;;;;;;6180399;23;20911;-81
2022/01/10 02:06:23;;;;;;;14.37;7.90;;;3.80;99.90;;;;;;6179227;23;20191;-85
2022/01/10 02:08:50;;;;;;;27.00;8.07;;;3.80;99.90;;;;;;6178437;23;20221;-81
2022/01/10 02:11:18;;;;;;;20.57;8.47;;;3.90;99.90;;;;;;6178663;23;20167;-82
2022/01/10 02:13:45;;;;;;;16.53;7.60;;;3.90;99.90;;;;;;6178548;23;20174;-82
2022/01/10 02:16:17;;;;;;;19.23;7.73;;;3.90;99.90;;;;;;6178375;23;20174;-80
2022/01/10 02:18:44;;;;;;;24.77;8.07;;;3.90;99.90;;;;;;6177855;23;20290;-85
2022/01/10 02:21:14;;;;;;;20.10;8.27;;;3.90;99.90;;;;;;6177535;23;20198;-79
2022/01/10 02:23:42;;;;;;;13.93;7.40;;;3.90;99.90;;;;;;6179120;23;20206;-85
2022/01/10 02:26:09;;;;;;;18.17;7.70;;;3.90;99.90;;;;;;6179676;23;20178;-84
2022/01/10 02:28:36;;;;;;;18.07;7.60;;;3.90;99.90;;;;;;6183676;23;20236;-89
2022/01/10 02:31:03;;;;;;;17.87;7.57;;;3.90;99.90;;;;;;6183863;23;20724;-87
2022/01/10 02:33:32;;;;;;;21.60;7.17;;;3.90;99.90;;;;;;6182527;23;20556;-90
2022/01/10 02:36:08;;;;;;;11.93;6.30;;;4.00;99.90;;;;;;6180126;23;20211;-82
2022/01/10 02:38:37;;;;;;;16.77;6.30;;;3.90;99.90;;;;;;6178538;23;20897;-84
2022/01/10 02:41:04;;;;;;;24.63;7.17;;;4.00;99.90;;;;;;6179964;23;20201;-84
2022/01/10 02:43:31;;;;;;;14.73;7.00;;;3.90;99.90;;;;;;6181695;23;20171;-90
2022/01/10 02:45:57;;;;;;;19.93;7.23;;;4.00;99.90;;;;;;6180566;23;20174;-81
2022/01/10 02:48:24;;;;;;;19.70;7.63;;;4.00;99.90;;;;;;6177969;23;20178;-83
2022/01/10 02:50:52;;;;;;;15.07;6.50;;;4.00;99.90;;;;;;6178094;23;20167;-82
2022/01/10 02:53:19;;;;;;;23.80;6.93;;;4.00;99.90;;;;;;6178636;23;20171;-80
2022/01/10 02:55:47;;;;;;;13.47;6.17;;;4.00;99.90;;;;;;6178806;23;20182;-82
2022/01/10 02:58:14;;;;;;;16.33;7.80;;;4.00;99.90;;;;;;6178286;23;20177;-85
2022/01/10 03:00:40;;;;;;;16.30;7.00;;;4.10;99.90;;;;;;6177208;23;20567;-87
2022/01/10 03:03:07;;;;;;;17.73;7.23;;;4.10;99.90;;;;;;6179211;23;20178;-88
2022/01/10 03:05:35;;;;;;;19.40;8.47;;;4.10;99.90;;;;;;6177108;23;20226;-81
2022/01/10 03:08:03;;;;;;;14.87;6.37;;;4.10;99.90;;;;;;6178253;23;20561;-80
2022/01/10 03:10:31;;;;;;;17.20;7.17;;;4.10;99.90;;;;;;6178623;23;20178;-82
2022/01/10 03:13:00;;;;;;;18.03;7.33;;;4.10;99.90;;;;;;6179002;23;20179;-82
2022/01/10 03:15:28;;;;;;;18.40;7.43;;;4.10;99.90;;;;;;6177289;23;20170;-81
2022/01/10 03:17:55;;;;;;;15.50;5.60;;;4.10;99.90;;;;;;6178174;23;20206;-80
2022/01/10 03:20:23;;;;;;;11.90;6.53;;;4.10;99.90;;;;;;6178539;23;20178;-80
2022/01/10 03:22:50;;;;;;;20.47;7.20;;;4.00;99.90;;;;;;6177360;23;20179;-85
2022/01/10 03:25:17;;;;;;;19.17;6.80;;;4.00;99.90;;;;;;6179042;23;20174;-85
2022/01/10 03:27:44;;;;;;;14.37;6.20;;;4.00;99.90;;;;;;6178611;23;20171;-86
2022/01/10 03:30:15;;;;;;;16.47;6.83;;;4.00;99.90;;;;;;6178105;23;20181;-82
2022/01/10 03:32:43;;;;;;;19.70;6.80;;;4.00;99.90;;;;;;6178289;23;20167;-81
2022/01/10 03:35:10;;;;;;;22.70;6.93;;;4.00;99.90;;;;;;6179480;23;20556;-80
2022/01/10 03:37:37;;;;;;;15.20;6.63;;;4.00;99.90;;;;;;6178465;23;20167;-80
2022/01/10 03:40:06;;;;;;;16.67;6.77;;;4.00;99.90;;;;;;6178827;23;20209;-80
2022/01/10 03:42:33;;;;;;;14.37;6.90;;;3.90;99.90;;;;;;6177841;23;20204;-81
2022/01/10 03:45:00;;;;;;;15.37;6.33;;;4.00;99.90;;;;;;6178359;23;20178;-85
2022/01/10 03:47:29;;;;;;;17.67;7.53;;;4.00;99.90;;;;;;6178304;23;20175;-82
2022/01/10 03:49:55;;;;;;;19.63;7.20;;;3.90;99.90;;;;;;6177290;23;20571;-82
2022/01/10 03:52:22;;;;;;;18.60;7.60;;;3.90;99.90;;;;;;6177492;23;20548;-83
2022/01/10 03:54:49;;;;;;;15.60;7.37;;;3.90;99.90;;;;;;6178355;23;20432;-86
2022/01/10 03:57:16;;;;;;;19.40;7.47;;;3.90;99.90;;;;;;6175831;23;20590;-83
2022/01/10 03:59:43;;;;;;;19.97;7.37;;;3.90;99.90;;;;;;6179366;23;20181;-91
2022/01/10 04:02:09;;;;;;;16.90;6.87;;;3.90;99.90;;;;;;6180183;23;20226;-90
2022/01/10 04:04:39;;;;;;;16.20;6.50;;;3.90;99.90;;;;;;6180772;23;20190;-91
2022/01/10 04:07:07;;;;;;;22.83;6.97;;;3.90;99.90;;;;;;6183599;23;20177;-90
2022/01/10 04:09:34;;;;;;;16.43;6.57;;;3.80;99.90;;;;;;6182247;23;20202;-91
2022/01/10 04:12:00;;;;;;;12.93;6.63;;;3.80;99.90;;;;;;6182174;23;20171;-91
2022/01/10 04:14:27;;;;;;;15.47;7.83;;;3.70;99.90;;;;;;6182918;23;20167;-89
2022/01/10 04:16:54;;;;;;;11.53;5.87;;;3.70;99.90;;;;;;6181562;23;20180;-92
2022/01/10 04:19:21;;;;;;;9.63;5.63;;;3.70;99.90;;;;;;6181941;23;20206;-89
2022/01/10 04:21:49;;;;;;;11.83;5.87;;;3.60;99.90;;;;;;6182944;23;20202;-81
2022/01/10 04:24:16;;;;;;;13.13;5.43;;;3.60;99.90;;;;;;6182133;23;20166;-91
2022/01/10 04:26:43;;;;;;;13.97;7.30;;;3.60;99.90;;;;;;6180612;23;20229;-90
2022/01/10 04:29:10;;;;;;;15.00;5.70;;;3.50;99.90;;;;;;6181881;23;20205;-90
2022/01/10 04:31:37;;;;;;;16.63;6.13;;;3.50;99.90;;;;;;6181004;23;20174;-92
2022/01/10 04:34:04;;;;;;;13.70;6.67;;;3.50;99.90;;;;;;6180689;23;20178;-92
2022/01/10 04:36:30;;;;;;;11.60;5.23;;;3.40;99.90;;;;;;6181112;23;20185;-93
2022/01/10 04:38:59;;;;;;;12.67;6.57;;;3.40;99.90;;;;;;6180262;23;20432;-82
2022/01/10 04:41:25;;;;;;;12.50;6.17;;;3.40;99.90;;;;;;6180588;23;20191;-89
2022/01/10 04:43:52;;;;;;;15.57;5.90;;;3.40;99.90;;;;;;6180657;23;20171;-83
2022/01/10 04:46:19;;;;;;;16.50;6.63;;;3.40;99.90;;;;;;6181460;23;20188;-87
2022/01/10 04:48:46;;;;;;;16.17;7.50;;;3.40;99.90;;;;;;6181571;23;20221;-81
2022/01/10 04:51:15;;;;;;;12.30;5.10;;;3.40;99.90;;;;;;6180646;23;20186;-90
2022/01/10 04:53:44;;;;;;;18.73;7.97;;;3.40;99.90;;;;;;6179299;23;20179;-87
2022/01/10 04:56:12;;;;;;;15.03;6.67;;;3.40;99.90;;;;;;6180832;23;20182;-92
2022/01/10 04:58:39;;;;;;;10.10;5.53;;;3.40;99.90;;;;;;6178819;23;20603;-90
2022/01/10 05:01:07;;;;;;;14.37;5.93;;;3.40;99.90;;;;;;6179067;23;20730;-90
2022/01/10 05:03:34;;;;;;;13.10;5.30;;;3.40;99.90;;;;;;6179988;23;20572;-84
2022/01/10 05:06:01;;;;;;;17.83;6.40;;;3.30;99.90;;;;;;6180548;23;20269;-83
2022/01/10 05:08:27;;;;;;;12.67;5.90;;;3.30;99.90;;;;;;6178907;23;20178;-87
2022/01/10 05:10:56;;;;;;;17.17;6.43;;;3.30;99.90;;;;;;6178595;23;20578;-80
2022/01/10 05:13:25;;;;;;;19.40;7.20;;;3.30;99.90;;;;;;6179268;23;20178;-86
2022/01/10 05:15:52;;;;;;;22.40;7.47;;;3.30;99.90;;;;;;6180783;23;20178;-87
2022/01/10 05:18:20;;;;;;;24.67;8.30;;;3.30;99.90;;;;;;6182145;23;20240;-83
2022/01/10 05:20:47;;;;;;;17.73;7.13;;;3.30;99.90;;;;;;6181540;23;20179;-85
2022/01/10 05:23:14;;;;;;;17.80;7.83;;;3.30;99.90;;;;;;6180670;23;20182;-81
2022/01/10 05:25:41;;;;;;;22.27;7.37;;;3.30;99.90;;;;;;6181256;23;20495;-82
2022/01/10 05:28:10;;;;;;;10.83;5.43;;;3.20;99.90;;;;;;6179487;23;20167;-86
2022/01/10 05:30:40;;;;;;;19.07;8.97;;;3.20;99.90;;;;;;6179303;23;20461;-92
2022/01/10 05:33:08;;;;;;;25.20;8.23;;;3.30;99.90;;;;;;6184757;23;20181;-89
2022/01/10 05:35:36;;;;;;;17.60;7.90;;;3.30;99.90;;;;;;6184706;23;20202;-90
2022/01/10 05:38:03;;;;;;;23.63;8.33;;;3.40;99.90;;;;;;6184715;23;20198;-91
2022/01/10 05:40:30;;;;;;;23.27;7.73;;;3.40;99.90;;;;;;6184245;23;20560;-91
2022/01/10 05:42:57;;;;;;;21.13;7.80;;;3.40;99.90;;;;;;6184260;23;20199;-90
2022/01/10 05:45:23;;;;;;;21.60;7.67;;;3.50;99.90;;;;;;6183551;23;20178;-89
2022/01/10 05:47:52;;;;;;;18.70;7.37;;;3.50;99.90;;;;;;6183226;23;20181;-91
2022/01/10 05:50:31;;;;;;;17.23;8.00;;;3.50;99.90;;;;;;6183392;23;20560;-92
2022/01/10 05:52:59;;;;;;;15.67;6.47;;;3.50;99.90;;;;;;6182573;23;20603;-92
2022/01/10 05:55:26;;;;;;;17.40;6.83;;;3.50;99.90;;;;;;6183458;23;20177;-91
2022/01/10 05:57:53;;;;;;;18.33;7.20;;;3.50;99.90;;;;;;6183226;23;20190;-89
2022/01/10 06:00:20;;;;;;;17.67;6.57;;;3.50;99.90;;;;;;6183540;23;20442;-91
2022/01/10 06:02:47;;;;;;;15.07;6.97;;;3.50;99.90;;;;;;6182885;23;20461;-80
2022/01/10 06:05:15;;;;;;;14.60;7.00;;;3.50;99.90;;;;;;6182093;23;20187;-81
2022/01/10 06:07:44;;;;;;;16.30;7.43;;;3.50;99.90;;;;;;6182746;23;20179;-82
2022/01/10 06:10:11;;;;;;;12.67;5.97;;;3.50;99.90;;;;;;6184006;23;20206;-90
2022/01/10 06:12:38;;;;;;;13.03;6.33;;;3.60;99.90;;;;;;6182503;23;20181;-85
2022/01/10 06:15:06;;;;;;;12.00;6.43;;;3.60;99.90;;;;;;6182658;23;20178;-91
2022/01/10 06:17:33;;;;;;;14.93;7.03;;;3.60;99.90;;;;;;6181642;23;20749;-91
2022/01/10 06:20:00;;;;;;;15.53;6.87;;;3.60;99.90;;;;;;6182888;23;20193;-92
2022/01/10 06:22:28;;;;;;;15.73;6.40;;;3.60;99.90;;;;;;6181775;23;20247;-92
2022/01/10 06:24:55;;;;;;;19.23;7.47;;;3.60;99.90;;;;;;6184515;23;20194;-83
2022/01/10 06:27:22;;;;;;;19.87;9.13;;;3.60;99.90;;;;;;6184240;23;20175;-86
2022/01/10 06:29:49;;;;;;;17.57;8.73;;;3.60;99.90;;;;;;6183633;23;20190;-84
2022/01/10 06:32:16;;;;;;;14.67;6.80;;;3.70;99.90;;;;;;6187557;23;20171;-85
2022/01/10 06:34:43;;;;;;;18.03;7.23;;;3.70;99.90;;;;;;6188147;23;20182;-89
2022/01/10 06:37:10;;;;;;;19.20;8.67;;;3.70;99.90;;;;;;6186741;23;20251;-91
2022/01/10 06:39:38;;;;;;;13.70;7.60;;;3.70;99.90;;;;;;6186116;23;20171;-81
2022/01/10 06:42:05;;;;;;;20.67;7.43;;;3.70;99.90;;;;;;6184384;23;20515;-88
2022/01/10 06:44:32;;;;;;;21.87;9.53;;;3.70;99.90;;;;;;6185171;23;20170;-85
2022/01/10 06:46:59;;;;;;;17.13;8.70;;;3.80;99.90;;;;;;6184095;23;20170;-91
2022/01/10 06:49:26;;;;;;;20.33;8.33;;;3.80;99.90;;;;;;6183704;23;20163;-91
2022/01/10 06:51:53;;;;;;;20.23;10.03;;;3.80;99.90;;;;;;6183429;23;20167;-84
2022/01/10 06:54:19;;;;;;;15.67;7.17;;;3.80;99.90;;;;;;6183025;23;20178;-85
2022/01/10 06:56:47;;;;;;;11.70;6.80;;;3.80;99.90;;;;;;6183961;23;20178;-90
2022/01/10 06:59:14;;;;;;;12.40;6.63;;;3.70;99.90;;;;;;6183597;23;20174;-90
2022/01/10 07:01:41;;;;;;;12.53;6.30;;;3.70;99.90;;;;;;6178907;23;20874;-92
2022/01/10 07:04:09;;;;;;;14.10;7.07;;;3.70;99.90;;;;;;6181595;23;20577;-90
2022/01/10 07:06:35;;;;;;;17.27;7.20;;;3.60;99.90;;;;;;6184174;23;20171;-92
2022/01/10 07:09:02;;;;;;;22.27;9.07;;;3.70;99.90;;;;;;6184018;23;20179;-90
2022/01/10 07:11:29;;;;;;;18.83;8.37;;;3.60;99.90;;;;;;6185261;23;20174;-92
2022/01/10 07:13:57;;;;;;;19.10;8.83;;;3.70;99.90;;;;;;6184370;23;20174;-85
2022/01/10 07:16:24;;;;;;;24.07;9.47;;;3.70;99.90;;;;;;6183844;23;20174;-92
2022/01/10 07:18:51;;;;;;;20.47;9.53;;;3.70;99.90;;;;;;6182302;23;20247;-91
2022/01/10 07:21:18;;;;;;;22.40;10.40;;;3.70;99.90;;;;;;6182703;23;20167;-90
2022/01/10 07:23:44;;;;;;;24.97;10.10;;;3.70;99.90;;;;;;6182023;23;20194;-85
2022/01/10 07:26:11;;;;;;;21.37;9.40;;;3.80;99.90;;;;;;6181318;23;20178;-89
2022/01/10 07:28:38;;;;;;;23.87;10.37;;;3.80;99.90;;;;;;6181653;23;20182;-85
2022/01/10 07:31:06;;;;;;;25.87;10.17;;;3.80;99.90;;;;;;6179165;23;20175;-86
2022/01/10 07:33:34;;;;;;;22.67;9.97;;;3.80;99.90;;;;;;6178910;23;20181;-80
2022/01/10 07:36:01;;;;;;;15.33;8.33;;;3.80;99.90;;;;;;6180233;23;20682;-81
2022/01/10 07:38:28;;;;;;;11.80;7.40;;;3.90;99.90;;;;;;6181000;23;20178;-86
2022/01/10 07:40:55;;;;;;;20.73;8.67;;;3.90;99.90;;;;;;6181219;23;20724;-89
2022/01/10 07:43:21;;;;;;;10.63;7.63;;;3.90;99.90;;;;;;6180537;23;20210;-90
2022/01/10 07:45:48;;;;;;;22.57;9.97;;;3.90;99.90;;;;;;6180561;23;20186;-91
2022/01/10 07:48:17;;;;;;;15.23;7.23;;;3.90;99.90;;;;;;6181331;23;20181;-91
2022/01/10 07:50:44;;;;;;;15.20;7.87;;;3.90;99.90;;;;;;6179951;23;20174;-85
2022/01/10 07:53:11;;;;;;;18.77;8.80;;;3.90;99.90;;;;;;6179013;23;20181;-82
2022/01/10 07:55:38;;;;;;;23.40;10.27;;;3.90;99.90;;;;;;6181003;23;20185;-81
2022/01/10 07:58:05;;;;;;;24.40;9.50;;;3.90;99.90;;;;;;6180464;23;20730;-86
2022/01/10 08:00:31;;;;;;;24.23;9.70;;;4.00;99.90;;;;;;6180483;23;20179;-81
2022/01/10 08:02:58;;;;;;;18.53;9.13;;;4.00;99.90;;;;;;6181280;23;20227;-83
2022/01/10 08:05:26;;;;;;;23.00;9.80;;;4.00;99.90;;;;;;6180822;23;20191;-87
2022/01/10 08:07:53;;;;;;;19.23;9.70;;;4.00;99.90;;;;;;6180856;23;20185;-90
2022/01/10 08:10:20;;;;;;;27.23;11.10;;;4.00;99.90;;;;;;6179905;23;20607;-80
2022/01/10 08:12:47;;;;;;;25.80;11.67;;;4.10;99.90;;;;;;6178507;23;20229;-80
2022/01/10 08:15:14;;;;;;;16.83;9.97;;;4.10;99.90;;;;;;6179047;23;20179;-80
2022/01/10 08:17:41;;;;;;;17.73;9.23;;;4.10;99.90;;;;;;6179808;23;20189;-85
2022/01/10 08:20:09;;;;;;;16.60;10.07;;;4.10;99.90;;;;;;6179668;23;20211;-79
2022/01/10 08:22:37;;;;;;;12.93;7.37;;;4.10;99.90;;;;;;6177414;23;20202;-79
2022/01/10 08:25:07;;;;;;;11.70;8.27;;;4.10;99.90;;;;;;6177826;23;20182;-88
2022/01/10 08:27:34;;;;;;;22.90;10.20;;;4.10;99.90;;;;;;6175122;23;20178;-80
2022/01/10 08:30:01;;;;;;;18.17;9.93;;;4.10;99.90;;;;;;6177633;23;20189;-88
2022/01/10 08:32:28;;;;;;;28.00;12.13;;;4.10;99.90;;;;;;6179089;23;20186;-82
2022/01/10 08:34:55;;;;;;;27.77;10.80;;;4.20;99.90;;;;;;6109348;23;20179;-83
2022/01/10 08:37:22;;;;;;;25.17;9.63;;;4.20;99.90;;;;;;6180759;23;20190;-88
2022/01/10 08:39:51;;;;;;;17.13;9.63;;;4.20;99.90;;;;;;6180844;23;20186;-87
2022/01/10 08:42:19;;;;;;;17.37;9.90;;;4.20;99.90;;;;;;6180581;23;20261;-89
2022/01/10 08:44:46;;;;;;;18.40;9.60;;;4.30;99.90;;;;;;6178949;23;20823;-84
2022/01/10 08:47:13;;;;;;;18.43;10.33;;;4.30;99.90;;;;;;6178050;23;20575;-88
2022/01/10 08:49:41;;;;;;;27.17;12.10;;;4.30;99.90;;;;;;6177843;23;20842;-88
2022/01/10 08:52:08;;;;;;;20.57;11.43;;;4.30;99.90;;;;;;6180010;23;20452;-90
2022/01/10 08:54:35;;;;;;;23.30;11.37;;;4.40;99.90;;;;;;6180326;23;20178;-90
2022/01/10 08:57:04;;;;;;;18.83;10.83;;;4.40;99.90;;;;;;6180424;23;20193;-88
2022/01/10 08:59:31;;;;;;;31.93;12.20;;;4.40;99.90;;;;;;6180193;23;20564;-89
2022/01/10 09:02:00;;;;;;;28.37;11.90;;;4.40;99.90;;;;;;6178257;23;20185;-83
2022/01/10 09:04:28;;;;;;;16.63;10.70;;;4.50;99.90;;;;;;6179803;23;20265;-87
2022/01/10 09:06:55;;;;;;;25.63;12.77;;;4.50;99.90;;;;;;6180214;23;20194;-86
2022/01/10 09:09:23;;;;;;;23.77;11.97;;;4.50;99.90;;;;;;6180390;23;20186;-82
2022/01/10 09:11:50;;;;;;;21.90;12.07;;;4.50;99.90;;;;;;6179653;23;20516;-82
2022/01/10 09:14:18;;;;;;;23.20;12.80;;;4.40;99.90;;;;;;6179343;23;20254;-80
2022/01/10 09:16:46;;;;;;;22.70;13.10;;;4.40;99.90;;;;;;6179841;23;20188;-85
2022/01/10 09:19:13;;;;;;;25.10;12.03;;;4.40;99.90;;;;;;6180316;23;20534;-84
2022/01/10 09:21:40;;;;;;;25.90;12.57;;;4.50;99.90;;;;;;6179501;23;20197;-87
2022/01/10 09:24:07;;;;;;;30.83;13.13;;;4.50;99.90;;;;;;6178420;23;20198;-84
2022/01/10 09:26:34;;;;;;;24.80;12.97;;;4.50;99.90;;;;;;6177773;23;20186;-79
2022/01/10 09:29:01;;;;;;;20.43;12.07;;;4.50;99.90;;;;;;6178610;23;20179;-80
2022/01/10 09:31:29;;;;;;;24.83;13.00;;;4.60;99.90;;;;;;6179084;23;20193;-81
2022/01/10 09:33:56;;;;;;;33.17;14.63;;;4.60;99.90;;;;;;6178986;23;20179;-84
2022/01/10 09:36:25;;;;;;;26.37;14.27;;;4.70;99.90;;;;;;6179589;23;20197;-88
2022/01/10 09:38:52;;;;;;;23.17;14.23;;;4.70;99.90;;;;;;6179185;23;20258;-90
2022/01/10 09:41:18;;;;;;;26.43;14.53;;;4.80;99.90;;;;;;6177558;23;20457;-84
2022/01/10 09:43:51;;;;;;;26.83;15.50;;;4.80;99.90;;;;;;6178332;23;20214;-82
2022/01/10 09:46:18;;;;;;;34.53;16.50;;;4.90;99.90;;;;;;6173792;23;20186;-80
2022/01/10 09:48:47;;;;;;;25.87;15.47;;;5.00;99.90;;;;;;6174258;23;20194;-82
2022/01/10 09:51:14;;;;;;;25.47;15.53;;;5.00;99.90;;;;;;6173522;23;20179;-82
2022/01/10 09:53:41;;;;;;;28.53;16.27;;;5.10;99.90;;;;;;6174189;23;20190;-81
2022/01/10 09:56:08;;;;;;;29.83;17.10;;;5.20;99.90;;;;;;6174589;23;20198;-83
2022/01/10 09:58:35;;;;;;;31.67;16.30;;;5.20;99.90;;;;;;6176004;23;20186;-82
2022/01/10 10:01:03;;;;;;;32.73;15.53;;;5.30;99.90;;;;;;6175874;23;20182;-83
2022/01/10 10:03:30;;;;;;;30.23;15.90;;;5.30;99.90;;;;;;6176337;23;20198;-82
2022/01/10 10:05:59;;;;;;;33.87;17.40;;;5.40;99.90;;;;;;6177016;23;20201;-83
2022/01/10 10:08:27;;;;;;;35.50;18.10;;;5.40;99.90;;;;;;6178034;23;20181;-83
2022/01/10 10:10:55;;;;;;;30.83;17.40;;;5.50;99.90;;;;;;6177246;23;20194;-80
2022/01/10 10:13:22;;;;;;;30.50;17.73;;;5.50;99.90;;;;;;6178015;23;20241;-80
2022/01/10 10:15:49;;;;;;;28.97;18.00;;;5.60;99.90;;;;;;6177398;23;20217;-81
2022/01/10 10:18:20;;;;;;;34.97;18.83;;;5.60;99.90;;;;;;6177514;23;20209;-83
2022/01/10 10:20:47;;;;;;;34.47;20.67;;;5.70;99.90;;;;;;6178730;23;20273;-81
2022/01/10 10:23:18;;;;;;;30.47;18.40;;;5.70;99.90;;;;;;6178112;23;20199;-80
2022/01/10 10:25:51;;;;;;;37.50;20.10;;;5.70;99.90;;;;;;6175839;23;20179;-80
2022/01/10 10:28:18;;;;;;;34.70;18.83;;;5.80;99.90;;;;;;6178936;23;20184;-80
2022/01/10 10:30:45;;;;;;;30.83;19.77;;;5.80;99.90;;;;;;6177403;23;20175;-80
2022/01/10 10:33:19;;;;;;;34.63;20.47;;;5.90;99.90;;;;;;6177077;23;20183;-82
2022/01/10 10:35:56;;;;;;;33.47;19.60;;;5.90;99.90;;;;;;6177513;23;20174;-81
2022/01/10 10:38:25;;;;;;;31.37;18.63;;;5.90;99.90;;;;;;6177957;23;20178;-80
2022/01/10 10:40:52;;;;;;;33.50;19.10;;;6.00;99.90;;;;;;6177936;23;20175;-81
2022/01/10 10:43:19;;;;;;;27.87;18.50;;;6.00;99.90;;;;;;6177469;23;20195;-81
2022/01/10 10:45:48;;;;;;;26.97;18.77;;;6.00;99.90;;;;;;6177923;23;20202;-81
2022/01/10 10:48:17;;;;;;;28.90;18.53;;;6.10;99.90;;;;;;6177103;23;20452;-81
2022/01/10 10:50:46;;;;;;;29.00;19.33;;;6.10;99.90;;;;;;6177765;23;20612;-80
2022/01/10 10:53:15;;;;;;;33.10;18.73;;;6.20;99.90;;;;;;6178248;23;20182;-79
2022/01/10 10:55:45;;;;;;;26.93;18.13;;;6.20;99.90;;;;;;6177806;23;20745;-81
2022/01/10 10:58:13;;;;;;;33.70;19.63;;;6.20;99.90;;;;;;6177326;23;20167;-80
2022/01/10 11:00:40;;;;;;;27.47;18.73;;;6.30;99.90;;;;;;6177505;23;20175;-80
2022/01/10 11:03:09;;;;;;;24.33;18.60;;;6.30;99.90;;;;;;6178041;23;20206;-80
2022/01/10 11:05:36;;;;;;;33.73;19.47;;;6.40;99.90;;;;;;6177345;23;20199;-84
2022/01/10 11:08:04;;;;;;;29.90;17.40;;;6.40;99.90;;;;;;6178437;23;20181;-81
2022/01/10 11:10:31;;;;;;;29.23;17.27;;;6.40;99.90;;;;;;6176375;23;20178;-81
2022/01/10 11:13:01;;;;;;;26.87;16.63;;;6.50;99.90;;;;;;6177776;23;20169;-81
2022/01/10 11:15:28;;;;;;;24.63;18.87;;;6.50;99.90;;;;;;6178987;23;20273;-81
2022/01/10 11:18:00;;;;;;;29.60;17.73;;;6.50;99.90;;;;;;6178123;23;20667;-83
2022/01/10 11:20:28;;;;;;;19.63;15.53;;;6.60;99.90;;;;;;6178725;23;20470;-83
2022/01/10 11:22:57;;;;;;;25.47;16.70;;;6.60;99.90;;;;;;6177555;23;20232;-81
2022/01/10 11:25:29;;;;;;;26.97;18.40;;;6.70;99.90;;;;;;6177198;23;20178;-81
2022/01/10 11:27:58;;;;;;;28.60;17.57;;;6.70;99.90;;;;;;6175728;23;20208;-79
2022/01/10 11:30:35;;;;;;;26.20;18.40;;;6.70;99.90;;;;;;6176975;23;20174;-79
2022/01/10 11:33:07;;;;;;;23.77;15.60;;;6.70;99.90;;;;;;6177685;23;20193;-81
2022/01/10 11:35:35;;;;;;;28.17;18.00;;;6.80;99.90;;;;;;6177055;23;20175;-80
2022/01/10 11:38:20;;;;;;;25.53;16.50;;;6.80;99.90;;;;;;6177286;23;20185;-82
2022/01/10 11:40:48;;;;;;;27.53;16.80;;;6.80;99.90;;;;;;6176012;23;20178;-82
2022/01/10 11:43:45;;;;;;;26.43;15.43;;;6.90;99.90;;;;;;6180472;23;20196;-83
2022/01/10 11:46:17;;;;;;;26.97;16.53;;;6.90;99.90;;;;;;6179322;23;20642;-82
2022/01/10 11:48:46;;;;;;;22.93;15.27;;;7.00;99.90;;;;;;6180125;23;20167;-83
2022/01/10 11:51:17;;;;;;;27.17;16.60;;;7.00;99.90;;;;;;6180174;23;20179;-83
2022/01/10 11:53:46;;;;;;;28.53;15.33;;;7.10;99.90;;;;;;6178258;23;20194;-83
2022/01/10 11:56:26;;;;;;;26.83;16.80;;;7.00;99.90;;;;;;6179579;23;20171;-83
2022/01/10 12:01:37;;;;;;;24.67;16.20;;;7.10;99.90;;;;;;6240182;22;20208;-83
2022/01/10 12:04:05;;;;;;;24.63;15.80;;;7.20;99.90;;;;;;6237548;23;20276;-82
2022/01/10 12:06:32;;;;;;;22.80;15.97;;;7.20;99.90;;;;;;6209968;23;20185;-83
2022/01/10 12:08:59;;;;;;;24.83;16.67;;;7.30;99.90;;;;;;6209526;23;20181;-82
2022/01/10 12:11:28;;;;;;;25.10;16.53;;;7.30;99.90;;;;;;6209363;23;20166;-82
2022/01/10 12:13:56;;;;;;;30.00;17.93;;;7.30;99.90;;;;;;6210169;23;20174;-82
2022/01/10 12:16:23;;;;;;;20.47;15.27;;;7.30;99.90;;;;;;6208067;23;20388;-81
2022/01/10 12:18:52;;;;;;;24.40;17.17;;;7.30;99.90;;;;;;6210232;23;20174;-81
2022/01/10 12:21:19;;;;;;;22.10;16.67;;;7.30;99.90;;;;;;6207762;23;20174;-81
2022/01/10 12:23:47;;;;;;;25.40;16.63;;;7.40;99.90;;;;;;6206155;23;20206;-80
2022/01/10 12:26:15;;;;;;;30.00;18.27;;;7.40;99.90;;;;;;6207580;23;20697;-81
2022/01/10 12:28:44;;;;;;;25.50;16.03;;;7.40;99.90;;;;;;6207770;23;20173;-80
2022/01/10 12:31:11;;;;;;;27.00;16.57;;;7.40;99.90;;;;;;6207036;23;20174;-82
2022/01/10 12:33:38;;;;;;;19.07;15.17;;;7.50;99.90;;;;;;6208311;23;20178;-83
2022/01/10 12:36:06;;;;;;;24.90;16.07;;;7.50;99.90;;;;;;6207739;23;20177;-81
2022/01/10 12:38:33;;;;;;;24.90;15.53;;;7.50;99.90;;;;;;6207607;23;20178;-82
2022/01/10 12:41:00;;;;;;;25.37;17.00;;;7.60;99.90;;;;;;6206582;23;20185;-82
2022/01/10 12:43:26;;;;;;;26.47;16.20;;;7.60;99.90;;;;;;6206101;23;20846;-79
2022/01/10 12:45:54;;;;;;;22.53;15.40;;;7.60;99.90;;;;;;6205931;23;20235;-80
2022/01/10 12:48:24;;;;;;;24.97;16.37;;;7.60;99.90;;;;;;6206318;23;20178;-83
2022/01/10 12:50:54;;;;;;;21.00;16.07;;;7.70;99.90;;;;;;6207063;23;20170;-78
2022/01/10 12:53:22;;;;;;;28.70;16.77;;;7.70;99.90;;;;;;6206258;23;20178;-83
2022/01/10 12:55:50;;;;;;;20.23;15.93;;;7.80;99.90;;;;;;6207279;23;20177;-80